sensor_id;sensor_type;location;lat;lon;timestamp;pressure;altitude;pressure_sealevel;temperature;humidity
70027;BME280;57506;50.092;15.804;2024-03-06T00:01:32;99228.22;;;3.44;100.00
70027;BME280;57506;50.092;15.804;2024-03-06T00:03:57;99255.91;;;3.61;100.00
70027;BME280;57506;50.092;15.804;2024-03-06T00:06:23;99244.56;;;3.59;100.00
70027;BME280;57506;50.092;15.804;2024-03-06T00:08:50;99247.78;;;3.62;100.00
70027;BME280;57506;50.092;15.804;2024-03-06T00:11:16;99234.94;;;3.48;100.00
70027;BME280;57506;50.092;15.804;2024-03-06T00:13:42;99246.38;;;3.58;100.00
70027;BME280;57506;50.092;15.804;2024-03-06T00:16:08;99260.94;;;3.64;100.00
70027;BME280;57506;50.092;15.804;2024-03-06T00:18:34;99252.56;;;3.59;100.00
70027;BME280;57506;50.092;15.804;2024-03-06T00:21:00;99253.38;;;3.59;100.00
70027;BME280;57506;50.092;15.804;2024-03-06T00:23:25;99261.50;;;3.67;100.00
70027;BME280;57506;50.092;15.804;2024-03-06T00:25:52;99266.00;;;3.67;100.00
70027;BME280;57506;50.092;15.804;2024-03-06T00:28:17;99232.34;;;3.38;100.00
70027;BME280;57506;50.092;15.804;2024-03-06T00:30:43;99255.47;;;3.38;100.00
70027;BME280;57506;50.092;15.804;2024-03-06T00:33:08;99255.34;;;3.30;100.00
70027;BME280;57506;50.092;15.804;2024-03-06T00:35:34;99263.63;;;3.27;100.00
70027;BME280;57506;50.092;15.804;2024-03-06T00:38:00;99287.44;;;3.28;100.00
70027;BME280;57506;50.092;15.804;2024-03-06T00:40:28;99261.06;;;3.07;100.00
70027;BME280;57506;50.092;15.804;2024-03-06T00:42:57;99266.47;;;3.15;100.00
70027;BME280;57506;50.092;15.804;2024-03-06T00:45:23;99280.31;;;3.29;100.00
70027;BME280;57506;50.092;15.804;2024-03-06T00:47:49;99264.50;;;3.17;100.00
70027;BME280;57506;50.092;15.804;2024-03-06T00:50:14;99265.63;;;3.25;100.00
70027;BME280;57506;50.092;15.804;2024-03-06T00:52:44;99292.75;;;3.38;100.00
70027;BME280;57506;50.092;15.804;2024-03-06T00:55:10;99256.94;;;3.23;100.00
70027;BME280;57506;50.092;15.804;2024-03-06T00:57:36;99259.28;;;3.26;100.00
70027;BME280;57506;50.092;15.804;2024-03-06T01:00:05;99297.91;;;3.49;100.00
70027;BME280;57506;50.092;15.804;2024-03-06T01:02:39;99292.28;;;3.52;100.00
70027;BME280;57506;50.092;15.804;2024-03-06T01:05:06;99284.59;;;3.49;100.00
70027;BME280;57506;50.092;15.804;2024-03-06T01:07:37;99280.22;;;3.48;100.00
70027;BME280;57506;50.092;15.804;2024-03-06T01:10:03;99278.53;;;3.57;100.00
70027;BME280;57506;50.092;15.804;2024-03-06T01:12:32;99267.56;;;3.60;100.00
70027;BME280;57506;50.092;15.804;2024-03-06T01:14:57;99257.50;;;3.54;100.00
70027;BME280;57506;50.092;15.804;2024-03-06T01:17:23;99265.22;;;3.57;100.00
70027;BME280;57506;50.092;15.804;2024-03-06T01:19:49;99261.72;;;3.46;100.00
70027;BME280;57506;50.092;15.804;2024-03-06T01:22:15;99273.09;;;3.48;100.00
70027;BME280;57506;50.092;15.804;2024-03-06T01:24:40;99283.59;;;3.50;100.00
70027;BME280;57506;50.092;15.804;2024-03-06T01:27:06;99290.03;;;3.57;100.00
70027;BME280;57506;50.092;15.804;2024-03-06T01:29:32;99279.09;;;3.50;100.00
70027;BME280;57506;50.092;15.804;2024-03-06T01:31:58;99302.88;;;3.62;100.00
70027;BME280;57506;50.092;15.804;2024-03-06T01:34:24;99298.81;;;3.67;100.00
70027;BME280;57506;50.092;15.804;2024-03-06T01:36:50;99292.94;;;3.64;100.00
70027;BME280;57506;50.092;15.804;2024-03-06T01:39:16;99272.94;;;3.50;100.00
70027;BME280;57506;50.092;15.804;2024-03-06T01:41:49;99299.03;;;3.74;100.00
70027;BME280;57506;50.092;15.804;2024-03-06T01:44:16;99303.50;;;3.83;100.00
70027;BME280;57506;50.092;15.804;2024-03-06T01:46:45;99294.81;;;3.81;100.00
70027;BME280;57506;50.092;15.804;2024-03-06T01:49:13;99281.41;;;3.73;100.00
70027;BME280;57506;50.092;15.804;2024-03-06T01:51:46;99300.91;;;3.91;100.00
70027;BME280;57506;50.092;15.804;2024-03-06T01:54:13;99275.84;;;3.84;100.00
70027;BME280;57506;50.092;15.804;2024-03-06T01:56:44;99302.09;;;4.06;100.00
70027;BME280;57506;50.092;15.804;2024-03-06T01:59:12;99294.41;;;4.03;100.00
70027;BME280;57506;50.092;15.804;2024-03-06T02:01:39;99299.66;;;4.13;100.00
70027;BME280;57506;50.092;15.804;2024-03-06T02:04:06;99296.00;;;4.14;100.00
70027;BME280;57506;50.092;15.804;2024-03-06T02:06:35;99279.84;;;3.98;100.00
70027;BME280;57506;50.092;15.804;2024-03-06T02:09:01;99291.28;;;4.08;100.00
70027;BME280;57506;50.092;15.804;2024-03-06T02:11:28;99309.75;;;4.19;100.00
70027;BME280;57506;50.092;15.804;2024-03-06T02:13:55;99321.13;;;4.21;100.00
70027;BME280;57506;50.092;15.804;2024-03-06T02:16:20;99296.72;;;4.16;100.00
70027;BME280;57506;50.092;15.804;2024-03-06T02:18:55;99292.06;;;4.18;100.00
70027;BME280;57506;50.092;15.804;2024-03-06T02:21:23;99288.00;;;4.14;100.00
70027;BME280;57506;50.092;15.804;2024-03-06T02:23:49;99308.13;;;4.26;100.00
70027;BME280;57506;50.092;15.804;2024-03-06T02:26:17;99308.13;;;4.26;100.00
70027;BME280;57506;50.092;15.804;2024-03-06T02:28:52;99315.31;;;4.26;100.00
70027;BME280;57506;50.092;15.804;2024-03-06T02:31:19;99316.13;;;4.26;100.00
70027;BME280;57506;50.092;15.804;2024-03-06T02:33:46;99302.72;;;4.18;100.00
70027;BME280;57506;50.092;15.804;2024-03-06T02:36:16;99299.91;;;4.19;100.00
70027;BME280;57506;50.092;15.804;2024-03-06T02:38:45;99306.09;;;4.20;100.00
70027;BME280;57506;50.092;15.804;2024-03-06T02:41:11;99314.47;;;4.25;100.00
70027;BME280;57506;50.092;15.804;2024-03-06T02:43:39;99292.38;;;4.15;100.00
70027;BME280;57506;50.092;15.804;2024-03-06T02:46:05;99301.19;;;4.15;100.00
70027;BME280;57506;50.092;15.804;2024-03-06T02:48:30;99302.19;;;4.14;100.00
70027;BME280;57506;50.092;15.804;2024-03-06T02:50:56;99314.59;;;4.23;100.00
70027;BME280;57506;50.092;15.804;2024-03-06T02:53:22;99313.47;;;4.26;100.00
70027;BME280;57506;50.092;15.804;2024-03-06T02:55:48;99317.81;;;4.27;100.00
70027;BME280;57506;50.092;15.804;2024-03-06T02:58:15;99305.25;;;4.19;100.00
70027;BME280;57506;50.092;15.804;2024-03-06T03:00:42;99273.38;;;4.00;100.00
70027;BME280;57506;50.092;15.804;2024-03-06T03:03:08;99293.50;;;4.12;100.00
70027;BME280;57506;50.092;15.804;2024-03-06T03:05:35;99316.44;;;4.23;100.00
70027;BME280;57506;50.092;15.804;2024-03-06T03:08:01;99305.84;;;4.13;100.00
70027;BME280;57506;50.092;15.804;2024-03-06T03:10:29;99288.53;;;4.00;100.00
70027;BME280;57506;50.092;15.804;2024-03-06T03:12:54;99293.72;;;4.01;100.00
70027;BME280;57506;50.092;15.804;2024-03-06T03:15:20;99317.28;;;4.06;100.00
70027;BME280;57506;50.092;15.804;2024-03-06T03:17:46;99311.69;;;3.99;100.00
70027;BME280;57506;50.092;15.804;2024-03-06T03:20:12;99285.53;;;3.85;100.00
70027;BME280;57506;50.092;15.804;2024-03-06T03:22:41;99315.50;;;3.97;100.00
70027;BME280;57506;50.092;15.804;2024-03-06T03:25:11;99320.75;;;4.06;100.00
70027;BME280;57506;50.092;15.804;2024-03-06T03:27:40;99313.91;;;4.04;100.00
70027;BME280;57506;50.092;15.804;2024-03-06T03:30:13;99280.56;;;3.90;100.00
70027;BME280;57506;50.092;15.804;2024-03-06T03:32:38;99326.03;;;4.16;100.00
70027;BME280;57506;50.092;15.804;2024-03-06T03:35:05;99312.94;;;4.05;100.00
70027;BME280;57506;50.092;15.804;2024-03-06T03:37:31;99326.88;;;4.16;100.00
70027;BME280;57506;50.092;15.804;2024-03-06T03:39:56;99334.13;;;4.24;100.00
70027;BME280;57506;50.092;15.804;2024-03-06T03:42:22;99327.81;;;4.25;100.00
70027;BME280;57506;50.092;15.804;2024-03-06T03:44:47;99330.47;;;4.25;100.00
70027;BME280;57506;50.092;15.804;2024-03-06T03:47:13;99315.91;;;4.19;100.00
70027;BME280;57506;50.092;15.804;2024-03-06T03:49:38;99310.03;;;4.16;100.00
70027;BME280;57506;50.092;15.804;2024-03-06T03:52:04;99329.47;;;4.26;100.00
70027;BME280;57506;50.092;15.804;2024-03-06T03:54:30;99322.09;;;4.20;100.00
70027;BME280;57506;50.092;15.804;2024-03-06T03:56:55;99343.38;;;4.30;100.00
70027;BME280;57506;50.092;15.804;2024-03-06T03:59:21;99320.94;;;4.22;100.00
70027;BME280;57506;50.092;15.804;2024-03-06T04:01:46;99330.16;;;4.28;100.00
70027;BME280;57506;50.092;15.804;2024-03-06T04:04:12;99334.53;;;4.29;100.00
70027;BME280;57506;50.092;15.804;2024-03-06T04:06:38;99307.91;;;4.19;100.00
70027;BME280;57506;50.092;15.804;2024-03-06T04:09:03;99331.00;;;4.29;100.00
70027;BME280;57506;50.092;15.804;2024-03-06T04:11:30;99329.88;;;4.31;100.00
70027;BME280;57506;50.092;15.804;2024-03-06T04:13:59;99335.22;;;4.31;100.00
70027;BME280;57506;50.092;15.804;2024-03-06T04:16:24;99321.94;;;4.21;100.00
70027;BME280;57506;50.092;15.804;2024-03-06T04:18:50;99329.19;;;4.29;100.00
70027;BME280;57506;50.092;15.804;2024-03-06T04:21:16;99333.09;;;4.35;100.00
70027;BME280;57506;50.092;15.804;2024-03-06T04:23:43;99347.50;;;4.42;100.00
70027;BME280;57506;50.092;15.804;2024-03-06T04:26:08;99341.78;;;4.37;100.00
70027;BME280;57506;50.092;15.804;2024-03-06T04:28:34;99335.59;;;4.36;100.00
70027;BME280;57506;50.092;15.804;2024-03-06T04:30:59;99339.97;;;4.37;100.00
70027;BME280;57506;50.092;15.804;2024-03-06T04:33:25;99331.41;;;4.34;100.00
70027;BME280;57506;50.092;15.804;2024-03-06T04:35:51;99354.06;;;4.47;100.00
70027;BME280;57506;50.092;15.804;2024-03-06T04:38:17;99345.13;;;4.39;100.00
70027;BME280;57506;50.092;15.804;2024-03-06T04:40:43;99305.00;;;4.13;100.00
70027;BME280;57506;50.092;15.804;2024-03-06T04:43:08;99356.88;;;4.46;100.00
70027;BME280;57506;50.092;15.804;2024-03-06T04:45:34;99343.63;;;4.36;100.00
70027;BME280;57506;50.092;15.804;2024-03-06T04:48:00;99356.19;;;4.44;100.00
70027;BME280;57506;50.092;15.804;2024-03-06T04:50:25;99368.94;;;4.50;100.00
70027;BME280;57506;50.092;15.804;2024-03-06T04:52:52;99355.34;;;4.43;100.00
70027;BME280;57506;50.092;15.804;2024-03-06T04:55:18;99354.81;;;4.40;100.00
70027;BME280;57506;50.092;15.804;2024-03-06T04:57:48;99332.41;;;4.33;100.00
70027;BME280;57506;50.092;15.804;2024-03-06T05:00:14;99372.44;;;4.50;100.00
70027;BME280;57506;50.092;15.804;2024-03-06T05:02:40;99369.09;;;4.48;100.00
70027;BME280;57506;50.092;15.804;2024-03-06T05:05:07;99367.84;;;4.43;100.00
70027;BME280;57506;50.092;15.804;2024-03-06T05:07:36;99369.97;;;4.39;100.00
70027;BME280;57506;50.092;15.804;2024-03-06T05:10:01;99366.63;;;4.37;100.00
70027;BME280;57506;50.092;15.804;2024-03-06T05:12:28;99363.72;;;4.31;100.00
70027;BME280;57506;50.092;15.804;2024-03-06T05:14:54;99382.66;;;4.37;100.00
70027;BME280;57506;50.092;15.804;2024-03-06T05:17:20;99392.56;;;4.45;100.00
70027;BME280;57506;50.092;15.804;2024-03-06T05:19:47;99384.00;;;4.41;100.00
70027;BME280;57506;50.092;15.804;2024-03-06T05:22:14;99384.63;;;4.35;100.00
70027;BME280;57506;50.092;15.804;2024-03-06T05:24:41;99398.72;;;4.45;100.00
70027;BME280;57506;50.092;15.804;2024-03-06T05:27:08;99347.38;;;4.16;100.00
70027;BME280;57506;50.092;15.804;2024-03-06T05:29:35;99389.56;;;4.30;100.00
70027;BME280;57506;50.092;15.804;2024-03-06T05:32:04;99375.44;;;4.20;100.00
70027;BME280;57506;50.092;15.804;2024-03-06T05:34:29;99394.34;;;4.27;100.00
70027;BME280;57506;50.092;15.804;2024-03-06T05:36:55;99369.00;;;4.13;100.00
70027;BME280;57506;50.092;15.804;2024-03-06T05:39:21;99409.63;;;4.34;100.00
70027;BME280;57506;50.092;15.804;2024-03-06T05:41:46;99399.53;;;4.28;100.00
70027;BME280;57506;50.092;15.804;2024-03-06T05:44:12;99394.19;;;4.28;100.00
70027;BME280;57506;50.092;15.804;2024-03-06T05:46:38;99395.88;;;4.29;100.00
70027;BME280;57506;50.092;15.804;2024-03-06T05:49:04;99393.91;;;4.31;100.00
70027;BME280;57506;50.092;15.804;2024-03-06T05:51:30;99405.34;;;4.41;100.00
70027;BME280;57506;50.092;15.804;2024-03-06T05:53:56;99408.72;;;4.43;100.00
70027;BME280;57506;50.092;15.804;2024-03-06T05:56:22;99401.16;;;4.39;100.00
70027;BME280;57506;50.092;15.804;2024-03-06T05:58:47;99404.75;;;4.47;100.00
70027;BME280;57506;50.092;15.804;2024-03-06T06:01:17;99402.09;;;4.47;100.00
70027;BME280;57506;50.092;15.804;2024-03-06T06:03:47;99402.78;;;4.49;100.00
70027;BME280;57506;50.092;15.804;2024-03-06T06:06:17;99444.47;;;4.78;100.00
70027;BME280;57506;50.092;15.804;2024-03-06T06:08:45;99420.66;;;4.67;100.00
70027;BME280;57506;50.092;15.804;2024-03-06T06:11:11;99421.72;;;4.74;100.00
70027;BME280;57506;50.092;15.804;2024-03-06T06:13:36;99457.59;;;4.89;100.00
70027;BME280;57506;50.092;15.804;2024-03-06T06:16:02;99451.09;;;4.91;100.00
70027;BME280;57506;50.092;15.804;2024-03-06T06:18:30;99459.75;;;5.03;100.00
70027;BME280;57506;50.092;15.804;2024-03-06T06:20:57;99442.94;;;4.93;100.00
70027;BME280;57506;50.092;15.804;2024-03-06T06:23:23;99448.59;;;4.90;100.00
70027;BME280;57506;50.092;15.804;2024-03-06T06:25:48;99475.44;;;5.06;100.00
70027;BME280;57506;50.092;15.804;2024-03-06T06:28:14;99451.88;;;5.02;100.00
70027;BME280;57506;50.092;15.804;2024-03-06T06:30:39;99475.44;;;5.06;100.00
70027;BME280;57506;50.092;15.804;2024-03-06T06:33:05;99468.13;;;5.08;100.00
70027;BME280;57506;50.092;15.804;2024-03-06T06:35:31;99474.16;;;5.10;100.00
70027;BME280;57506;50.092;15.804;2024-03-06T06:37:56;99462.09;;;5.06;100.00
70027;BME280;57506;50.092;15.804;2024-03-06T06:40:22;99464.47;;;5.09;100.00
70027;BME280;57506;50.092;15.804;2024-03-06T06:42:49;99459.13;;;5.09;100.00
70027;BME280;57506;50.092;15.804;2024-03-06T06:45:15;99492.13;;;5.36;100.00
70027;BME280;57506;50.092;15.804;2024-03-06T06:47:41;99478.06;;;5.34;100.00
70027;BME280;57506;50.092;15.804;2024-03-06T06:50:07;99456.16;;;5.12;100.00
70027;BME280;57506;50.092;15.804;2024-03-06T06:52:34;99456.00;;;5.14;100.00
70027;BME280;57506;50.092;15.804;2024-03-06T06:55:00;99474.41;;;5.35;100.00
70027;BME280;57506;50.092;15.804;2024-03-06T06:57:26;99501.56;;;5.48;100.00
70027;BME280;57506;50.092;15.804;2024-03-06T06:59:52;99494.75;;;5.53;100.00
70027;BME280;57506;50.092;15.804;2024-03-06T07:02:18;99489.25;;;5.55;100.00
70027;BME280;57506;50.092;15.804;2024-03-06T07:04:43;99468.88;;;5.54;100.00
70027;BME280;57506;50.092;15.804;2024-03-06T07:07:09;99473.16;;;5.65;100.00
70027;BME280;57506;50.092;15.804;2024-03-06T07:09:34;99487.25;;;5.75;100.00
70027;BME280;57506;50.092;15.804;2024-03-06T07:12:00;99480.78;;;5.85;100.00
70027;BME280;57506;50.092;15.804;2024-03-06T07:14:26;99482.72;;;5.93;100.00
70027;BME280;57506;50.092;15.804;2024-03-06T07:16:51;99484.41;;;5.94;100.00
70027;BME280;57506;50.092;15.804;2024-03-06T07:19:17;99477.53;;;5.91;100.00
70027;BME280;57506;50.092;15.804;2024-03-06T07:21:43;99461.63;;;5.90;100.00
70027;BME280;57506;50.092;15.804;2024-03-06T07:24:09;99498.41;;;6.14;100.00
70027;BME280;57506;50.092;15.804;2024-03-06T07:26:34;99482.31;;;6.06;100.00
70027;BME280;57506;50.092;15.804;2024-03-06T07:29:00;99492.75;;;6.17;100.00
70027;BME280;57506;50.092;15.804;2024-03-06T07:31:26;99494.09;;;6.21;100.00
70027;BME280;57506;50.092;15.804;2024-03-06T07:33:52;99481.97;;;6.35;100.00
70027;BME280;57506;50.092;15.804;2024-03-06T07:36:18;99481.97;;;6.35;100.00
70027;BME280;57506;50.092;15.804;2024-03-06T07:38:44;99493.25;;;6.20;100.00
70027;BME280;57506;50.092;15.804;2024-03-06T07:41:10;99500.22;;;6.39;100.00
70027;BME280;57506;50.092;15.804;2024-03-06T07:43:36;99491.34;;;6.39;100.00
70027;BME280;57506;50.092;15.804;2024-03-06T07:46:04;99493.72;;;6.50;100.00
70027;BME280;57506;50.092;15.804;2024-03-06T07:48:42;99495.47;;;6.59;100.00
70027;BME280;57506;50.092;15.804;2024-03-06T07:51:09;99502.03;;;6.73;100.00
70027;BME280;57506;50.092;15.804;2024-03-06T07:53:35;99483.63;;;6.70;100.00
70027;BME280;57506;50.092;15.804;2024-03-06T07:56:02;99505.94;;;6.86;100.00
70027;BME280;57506;50.092;15.804;2024-03-06T07:58:28;99501.78;;;7.00;100.00
70027;BME280;57506;50.092;15.804;2024-03-06T08:00:58;99486.06;;;6.97;100.00
70027;BME280;57506;50.092;15.804;2024-03-06T08:03:24;99494.31;;;7.12;100.00
70027;BME280;57506;50.092;15.804;2024-03-06T08:05:51;99503.34;;;7.11;100.00
70027;BME280;57506;50.092;15.804;2024-03-06T08:08:21;99500.81;;;7.17;100.00
70027;BME280;57506;50.092;15.804;2024-03-06T08:10:47;99509.56;;;7.27;100.00
70027;BME280;57506;50.092;15.804;2024-03-06T08:13:13;99519.81;;;7.40;100.00
70027;BME280;57506;50.092;15.804;2024-03-06T08:15:39;99481.94;;;7.27;99.23
70027;BME280;57506;50.092;15.804;2024-03-06T08:18:06;99507.59;;;7.54;100.00
70027;BME280;57506;50.092;15.804;2024-03-06T08:20:31;99509.63;;;7.76;100.00
70027;BME280;57506;50.092;15.804;2024-03-06T08:22:58;99506.91;;;7.92;100.00
70027;BME280;57506;50.092;15.804;2024-03-06T08:25:24;99503.41;;;7.92;97.75
70027;BME280;57506;50.092;15.804;2024-03-06T08:27:49;99525.38;;;7.95;96.15
70027;BME280;57506;50.092;15.804;2024-03-06T08:30:15;99520.50;;;7.91;96.46
70027;BME280;57506;50.092;15.804;2024-03-06T08:32:41;99528.84;;;8.12;96.91
70027;BME280;57506;50.092;15.804;2024-03-06T08:35:10;99520.28;;;8.25;97.25
70027;BME280;57506;50.092;15.804;2024-03-06T08:37:40;99521.28;;;8.32;98.94
70027;BME280;57506;50.092;15.804;2024-03-06T08:40:07;99508.03;;;8.22;96.30
70027;BME280;57506;50.092;15.804;2024-03-06T08:42:33;99526.66;;;8.32;96.21
70027;BME280;57506;50.092;15.804;2024-03-06T08:44:58;99523.97;;;8.40;93.78
70027;BME280;57506;50.092;15.804;2024-03-06T08:47:24;99505.00;;;8.33;94.53
70027;BME280;57506;50.092;15.804;2024-03-06T08:49:50;99517.44;;;8.43;92.24
70027;BME280;57506;50.092;15.804;2024-03-06T08:52:15;99526.63;;;8.48;92.39
70027;BME280;57506;50.092;15.804;2024-03-06T08:54:41;99513.38;;;8.47;93.88
70027;BME280;57506;50.092;15.804;2024-03-06T08:57:07;99528.97;;;8.51;94.46
70027;BME280;57506;50.092;15.804;2024-03-06T08:59:34;99526.78;;;8.47;93.53
70027;BME280;57506;50.092;15.804;2024-03-06T09:02:12;99528.34;;;8.41;93.24
70027;BME280;57506;50.092;15.804;2024-03-06T09:04:40;99506.19;;;8.23;93.43
70027;BME280;57506;50.092;15.804;2024-03-06T09:07:06;99525.44;;;8.51;97.72
70027;BME280;57506;50.092;15.804;2024-03-06T09:09:31;99531.16;;;8.48;97.62
70027;BME280;57506;50.092;15.804;2024-03-06T09:12:00;99525.56;;;8.73;97.18
70027;BME280;57506;50.092;15.804;2024-03-06T09:14:25;99518.69;;;9.02;93.08
70027;BME280;57506;50.092;15.804;2024-03-06T09:16:51;99509.19;;;9.22;92.13
70027;BME280;57506;50.092;15.804;2024-03-06T09:19:17;99522.28;;;9.48;88.40
70027;BME280;57506;50.092;15.804;2024-03-06T09:21:43;99540.28;;;9.70;85.68
70027;BME280;57506;50.092;15.804;2024-03-06T09:24:08;99529.75;;;9.61;85.68
70027;BME280;57506;50.092;15.804;2024-03-06T09:26:34;99524.97;;;9.25;81.08
70027;BME280;57506;50.092;15.804;2024-03-06T09:29:00;99512.47;;;9.01;83.29
70027;BME280;57506;50.092;15.804;2024-03-06T09:31:26;99533.28;;;8.68;77.37
70027;BME280;57506;50.092;15.804;2024-03-06T09:33:53;99522.63;;;8.44;77.52
70027;BME280;57506;50.092;15.804;2024-03-06T09:36:19;99546.09;;;8.50;76.37
70027;BME280;57506;50.092;15.804;2024-03-06T09:38:44;99519.78;;;8.21;76.06
70027;BME280;57506;50.092;15.804;2024-03-06T09:41:10;99542.06;;;8.54;76.35
70027;BME280;57506;50.092;15.804;2024-03-06T09:43:36;99529.53;;;8.77;77.85
70027;BME280;57506;50.092;15.804;2024-03-06T09:46:02;99531.78;;;9.05;75.69
70027;BME280;57506;50.092;15.804;2024-03-06T09:48:29;99540.78;;;9.20;75.56
70027;BME280;57506;50.092;15.804;2024-03-06T09:51:00;99540.78;;;9.20;76.08
70027;BME280;57506;50.092;15.804;2024-03-06T09:53:27;99519.75;;;8.93;74.98
70027;BME280;57506;50.092;15.804;2024-03-06T09:55:53;99529.75;;;8.68;74.94
70027;BME280;57506;50.092;15.804;2024-03-06T09:58:19;99529.03;;;8.27;73.52
70027;BME280;57506;50.092;15.804;2024-03-06T10:00:46;99540.94;;;8.16;74.48
70027;BME280;57506;50.092;15.804;2024-03-06T10:03:13;99548.84;;;8.10;75.78
70027;BME280;57506;50.092;15.804;2024-03-06T10:05:38;99514.28;;;7.90;74.44
70027;BME280;57506;50.092;15.804;2024-03-06T10:08:05;99534.88;;;8.14;74.67
70027;BME280;57506;50.092;15.804;2024-03-06T10:10:31;99528.19;;;8.18;74.03
70027;BME280;57506;50.092;15.804;2024-03-06T10:12:57;99524.66;;;8.26;73.24
70027;BME280;57506;50.092;15.804;2024-03-06T10:15:26;99537.25;;;8.25;73.32
70027;BME280;57506;50.092;15.804;2024-03-06T10:18:18;99534.06;;;8.22;73.52
70027;BME280;57506;50.092;15.804;2024-03-06T10:20:44;99536.41;;;8.33;73.82
70027;BME280;57506;50.092;15.804;2024-03-06T10:23:10;99537.72;;;8.29;71.19
70027;BME280;57506;50.092;15.804;2024-03-06T10:25:36;99542.44;;;8.35;72.19
70027;BME280;57506;50.092;15.804;2024-03-06T10:28:09;99537.06;;;8.35;73.51
70027;BME280;57506;50.092;15.804;2024-03-06T10:30:41;99551.69;;;8.40;73.52
70027;BME280;57506;50.092;15.804;2024-03-06T10:33:15;99543.59;;;8.49;73.84
70027;BME280;57506;50.092;15.804;2024-03-06T10:35:42;99551.50;;;8.34;71.84
70027;BME280;57506;50.092;15.804;2024-03-06T10:38:09;99544.94;;;8.45;72.34
70027;BME280;57506;50.092;15.804;2024-03-06T10:40:37;99522.94;;;8.49;71.90
70027;BME280;57506;50.092;15.804;2024-03-06T10:43:04;99549.69;;;8.90;69.71
70027;BME280;57506;50.092;15.804;2024-03-06T10:45:48;99553.31;;;9.05;69.78
70027;BME280;57506;50.092;15.804;2024-03-06T10:48:15;99550.13;;;9.01;68.35
70027;BME280;57506;50.092;15.804;2024-03-06T10:50:42;99536.91;;;8.92;68.83
70027;BME280;57506;50.092;15.804;2024-03-06T10:53:16;99526.44;;;8.97;69.40
70027;BME280;57506;50.092;15.804;2024-03-06T10:55:45;99553.22;;;9.21;71.09
70027;BME280;57506;50.092;15.804;2024-03-06T10:58:12;99529.38;;;9.18;70.82
70027;BME280;57506;50.092;15.804;2024-03-06T11:00:40;99545.84;;;9.15;69.57
70027;BME280;57506;50.092;15.804;2024-03-06T11:03:07;99540.13;;;9.18;69.80
70027;BME280;57506;50.092;15.804;2024-03-06T11:05:43;99534.91;;;9.17;68.97
70027;BME280;57506;50.092;15.804;2024-03-06T11:08:13;99542.22;;;9.00;69.74
70027;BME280;57506;50.092;15.804;2024-03-06T11:10:40;99543.97;;;8.93;71.97
70027;BME280;57506;50.092;15.804;2024-03-06T11:15:40;99515.19;;;8.54;70.34
70027;BME280;57506;50.092;15.804;2024-03-06T11:23:30;99522.63;;;8.44;69.22
70027;BME280;57506;50.092;15.804;2024-03-06T11:26:00;99505.97;;;8.49;69.23
70027;BME280;57506;50.092;15.804;2024-03-06T11:28:27;99505.81;;;8.50;69.97
70027;BME280;57506;50.092;15.804;2024-03-06T11:31:03;99528.47;;;8.56;68.45
70027;BME280;57506;50.092;15.804;2024-03-06T11:33:42;99530.66;;;8.60;69.14
70027;BME280;57506;50.092;15.804;2024-03-06T11:36:16;99509.16;;;8.52;68.34
70027;BME280;57506;50.092;15.804;2024-03-06T11:44:15;99506.34;;;8.29;68.42
70027;BME280;57506;50.092;15.804;2024-03-06T11:46:46;99507.38;;;8.36;66.11
70027;BME280;57506;50.092;15.804;2024-03-06T11:51:57;99511.84;;;8.52;66.21
70027;BME280;57506;50.092;15.804;2024-03-06T11:54:24;99515.16;;;8.70;64.78
70027;BME280;57506;50.092;15.804;2024-03-06T11:56:53;99512.13;;;8.73;65.18
70027;BME280;57506;50.092;15.804;2024-03-06T11:59:30;99515.28;;;8.77;63.97
70027;BME280;57506;50.092;15.804;2024-03-06T12:01:59;99507.84;;;8.87;64.61
70027;BME280;57506;50.092;15.804;2024-03-06T12:04:29;99517.88;;;8.93;62.54
70027;BME280;57506;50.092;15.804;2024-03-06T12:06:58;99509.69;;;8.87;61.19
70027;BME280;57506;50.092;15.804;2024-03-06T12:09:35;99511.06;;;8.83;60.52
70027;BME280;57506;50.092;15.804;2024-03-06T12:12:02;99504.22;;;8.72;61.59
70027;BME280;57506;50.092;15.804;2024-03-06T12:14:29;99495.44;;;8.78;62.15
70027;BME280;57506;50.092;15.804;2024-03-06T12:16:58;99513.56;;;8.92;61.79
70027;BME280;57506;50.092;15.804;2024-03-06T12:19:28;99503.41;;;9.02;62.49
70027;BME280;57506;50.092;15.804;2024-03-06T12:21:55;99511.06;;;9.13;60.61
70027;BME280;57506;50.092;15.804;2024-03-06T12:24:21;99502.81;;;9.15;60.85
70027;BME280;57506;50.092;15.804;2024-03-06T12:26:47;99500.19;;;9.07;61.16
70027;BME280;57506;50.092;15.804;2024-03-06T12:29:23;99506.63;;;8.98;58.28
70027;BME280;57506;50.092;15.804;2024-03-06T12:31:48;99494.09;;;8.82;58.96
70027;BME280;57506;50.092;15.804;2024-03-06T12:34:14;99491.56;;;8.89;60.02
70027;BME280;57506;50.092;15.804;2024-03-06T12:36:42;99500.81;;;9.17;60.26
70027;BME280;57506;50.092;15.804;2024-03-06T12:39:08;99488.81;;;8.97;59.62
70027;BME280;57506;50.092;15.804;2024-03-06T12:41:40;99487.94;;;9.04;59.52
70027;BME280;57506;50.092;15.804;2024-03-06T12:44:06;99488.78;;;9.05;58.08
70027;BME280;57506;50.092;15.804;2024-03-06T12:46:32;99502.88;;;9.07;56.82
70027;BME280;57506;50.092;15.804;2024-03-06T12:48:58;99485.94;;;8.98;58.00
70027;BME280;57506;50.092;15.804;2024-03-06T12:51:24;99505.69;;;9.13;56.92
70027;BME280;57506;50.092;15.804;2024-03-06T12:53:49;99488.13;;;9.03;57.07
70027;BME280;57506;50.092;15.804;2024-03-06T12:56:17;99511.91;;;9.14;56.72
70027;BME280;57506;50.092;15.804;2024-03-06T12:58:42;99427.50;;;8.69;57.69
70027;BME280;57506;50.092;15.804;2024-03-06T13:01:08;99513.25;;;9.10;54.99
70027;BME280;57506;50.092;15.804;2024-03-06T13:03:35;99497.09;;;9.18;53.76
70027;BME280;57506;50.092;15.804;2024-03-06T13:06:02;99503.44;;;9.25;56.24
70027;BME280;57506;50.092;15.804;2024-03-06T13:08:28;99506.50;;;9.22;55.11